Terminal Aerodrome Forecast
Issued by NWS

Home | Current Version | Previous Version | Text Only | Print | Product List | Glossary Off
Versions: 1 2 3 4 5 6 7 8 9 10 11 12 13 14

056
FTUS43 KFGF 261733
TAFBJI
TAF
KBJI 261733Z 2618/2718 VRB06KT P6SM SCT200
     FM271300 15004KT P6SM BKN035=

USA.gov is the U.S. government's official web portal to all federal, state and local government web resources and services.